Time;durP1;ratioP1;P1;durP2;ratioP2;P2;SDS_P1;SDS_P2;PMS_P1;PMS_P2;Temp;Humidity;BMP_temperature;BMP_pressure;BME280_temperature;BME280_humidity;BME280_pressure;Samples;Min_cycle;Max_cycle;Signal;HPM_P1;HPM_P2
2022/05/16 00:03:01;;;;;;;6.17;3.93;;;16.90;77.30;;;;;;21064433;28;20725;-67
2022/05/16 00:13:03;;;;;;;6.77;4.10;;;16.80;77.90;;;;;;21081163;28;20239;-64
2022/05/16 00:23:05;;;;;;;7.47;4.10;;;16.70;78.60;;;;;;21080269;28;20849;-63
2022/05/16 00:33:07;;;;;;;6.27;4.10;;;16.60;79.30;;;;;;21080198;28;20227;-60
2022/05/16 00:43:12;;;;;;;5.70;3.97;;;16.40;79.70;;;;;;21079318;28;20208;-66
2022/05/16 00:53:14;;;;;;;6.67;4.17;;;16.30;80.40;;;;;;21079046;28;20262;-67
2022/05/16 01:13:40;;;;;;;6.23;4.00;;;16.10;81.20;;;;;;21078282;28;20297;-65
2022/05/16 01:23:54;;;;;;;5.90;4.20;;;16.00;81.70;;;;;;21067494;28;20277;-61
2022/05/16 01:33:56;;;;;;;10.20;4.47;;;15.90;82.00;;;;;;21079367;28;20697;-62
2022/05/16 01:44:00;;;;;;;11.40;4.60;;;15.70;82.60;;;;;;21078461;28;20208;-63
2022/05/16 01:54:04;;;;;;;12.47;5.13;;;15.60;82.90;;;;;;21076698;28;20237;-67
2022/05/16 02:04:06;;;;;;;11.37;4.57;;;15.60;83.40;;;;;;21076990;28;20657;-65
2022/05/16 02:14:07;;;;;;;7.10;4.80;;;15.60;83.80;;;;;;21088046;28;20596;-67
2022/05/16 02:34:30;;;;;;;6.60;4.40;;;15.40;84.50;;;;;;21089361;28;20245;-71
2022/05/16 02:44:32;;;;;;;8.40;4.50;;;15.20;84.70;;;;;;21088405;28;20214;-69
2022/05/16 02:54:34;;;;;;;7.90;4.60;;;15.20;85.10;;;;;;21088123;28;20261;-68
2022/05/16 03:04:36;;;;;;;10.27;4.80;;;15.00;85.10;;;;;;21087813;28;20210;-68
2022/05/16 03:14:38;;;;;;;7.47;4.63;;;14.90;85.40;;;;;;21085705;28;20238;-68
2022/05/16 03:24:40;;;;;;;7.47;4.33;;;14.90;85.70;;;;;;21084696;28;20220;-70
2022/05/16 03:34:42;;;;;;;6.60;4.73;;;14.90;86.10;;;;;;21084542;28;20236;-70
2022/05/16 03:44:44;;;;;;;9.57;4.57;;;14.80;86.20;;;;;;21083804;28;20663;-70
2022/05/16 03:54:46;;;;;;;7.57;4.47;;;14.80;86.60;;;;;;21082523;28;20325;-69
2022/05/16 04:04:47;;;;;;;6.43;4.50;;;14.80;86.90;;;;;;21099330;28;20255;-66
2022/05/16 04:14:49;;;;;;;13.93;6.00;;;14.90;86.70;;;;;;21094629;28;20239;-69
2022/05/16 04:24:51;;;;;;;7.70;4.87;;;15.10;86.70;;;;;;21081810;28;20665;-70
2022/05/16 04:34:53;;;;;;;14.23;5.13;;;15.10;86.70;;;;;;21081954;28;20287;-72
2022/05/16 04:44:56;;;;;;;13.00;5.17;;;15.40;86.90;;;;;;21097856;28;20252;-73
2022/05/16 04:55:00;;;;;;;17.73;6.20;;;15.40;87.20;;;;;;21095992;28;20329;-64
2022/05/16 05:05:03;;;;;;;17.93;6.67;;;15.40;87.40;;;;;;21062239;28;20256;-62
2022/05/16 05:15:07;;;;;;;11.53;5.30;;;15.50;87.80;;;;;;21057559;28;20673;-64
2022/05/16 05:25:18;;;;;;;23.47;6.13;;;15.60;87.90;;;;;;21074977;28;20289;-64
2022/05/16 05:35:20;;;;;;;16.60;6.80;;;15.70;87.50;;;;;;21162844;28;20322;-71
2022/05/16 05:45:22;;;;;;;28.73;6.50;;;15.90;87.40;;;;;;21168198;28;20206;-61
2022/05/16 05:55:24;;;;;;;22.17;6.80;;;16.10;87.30;;;;;;21176534;28;20320;-61
2022/05/16 06:05:27;;;;;;;16.57;7.03;;;16.30;87.30;;;;;;21175822;28;20265;-61
2022/05/16 06:15:29;;;;;;;11.20;6.70;;;16.60;86.70;;;;;;21173799;28;20280;-61
2022/05/16 06:25:48;;;;;;;15.87;6.40;;;17.00;86.00;;;;;;21175154;28;20202;-62
2022/05/16 06:35:50;;;;;;;16.43;6.33;;;17.30;84.80;;;;;;21180317;28;20322;-70
2022/05/16 06:45:53;;;;;;;14.97;6.30;;;17.70;83.70;;;;;;21175227;28;20204;-63
2022/05/16 06:55:55;;;;;;;22.17;6.77;;;18.10;82.40;;;;;;21172168;28;20284;-66
2022/05/16 07:06:17;;;;;;;13.93;6.43;;;18.40;80.80;;;;;;21171450;28;20297;-61
2022/05/16 07:16:19;;;;;;;10.10;6.07;;;18.70;79.80;;;;;;21169766;28;20248;-63
2022/05/16 07:36:41;;;;;;;21.87;5.63;;;18.90;78.10;;;;;;21168853;28;20232;-62
2022/05/16 07:47:07;;;;;;;12.80;5.97;;;19.40;77.60;;;;;;21168308;28;20207;-65
2022/05/16 07:57:08;;;;;;;13.53;5.97;;;19.70;76.60;;;;;;21167794;28;20464;-67
2022/05/16 08:07:10;;;;;;;14.13;7.10;;;19.70;76.50;;;;;;21166360;28;20246;-63
2022/05/16 08:17:17;;;;;;;20.50;7.40;;;20.00;76.30;;;;;;21165781;28;20248;-69
2022/05/16 08:27:19;;;;;;;20.60;7.67;;;20.30;76.20;;;;;;21164812;28;20571;-64
2022/05/16 08:47:47;;;;;;;13.63;6.47;;;20.90;75.70;;;;;;21164877;28;20212;-66
2022/05/16 08:58:03;;;;;;;15.40;6.50;;;21.40;75.30;;;;;;21163978;28;20279;-61
2022/05/16 09:08:10;;;;;;;16.87;5.40;;;21.50;75.50;;;;;;21148866;28;20633;-64
2022/05/16 09:18:37;;;;;;;12.90;5.33;;;21.50;75.70;;;;;;21169066;28;20332;-65
2022/05/16 09:28:46;;;;;;;8.27;4.87;;;21.60;75.60;;;;;;21179784;28;20238;-70
2022/05/16 09:38:49;;;;;;;5.53;3.40;;;21.90;74.40;;;;;;21178012;28;20202;-62
2022/05/16 09:49:07;;;;;;;4.80;3.57;;;22.00;74.20;;;;;;21179405;28;20251;-62
2022/05/16 09:59:11;;;;;;;5.00;3.63;;;22.10;75.20;;;;;;21180837;28;20209;-72
2022/05/16 10:09:15;;;;;;;6.93;3.43;;;22.20;75.10;;;;;;21176376;28;20639;-68
2022/05/16 10:19:22;;;;;;;10.23;4.10;;;22.40;75.30;;;;;;21175458;28;20678;-67
2022/05/16 10:29:28;;;;;;;7.70;3.80;;;22.60;75.40;;;;;;21175014;28;20237;-73
2022/05/16 10:39:31;;;;;;;9.03;3.40;;;22.70;74.60;;;;;;21175626;28;20707;-72
2022/05/16 10:49:49;;;;;;;7.20;3.30;;;22.90;73.80;;;;;;21156414;28;20245;-65
2022/05/16 11:00:06;;;;;;;5.00;3.50;;;23.40;72.20;;;;;;21172876;28;20210;-63
2022/05/16 11:10:24;;;;;;;7.70;4.70;;;23.80;71.00;;;;;;21154189;28;20234;-62
2022/05/16 11:20:42;;;;;;;8.80;4.13;;;24.20;70.70;;;;;;21171221;28;20230;-63
2022/05/16 11:30:59;;;;;;;10.40;3.53;;;24.60;70.40;;;;;;21169716;28;20263;-62
2022/05/16 11:41:26;;;;;;;7.23;3.80;;;24.90;69.80;;;;;;21170639;28;20255;-63
2022/05/16 11:51:58;;;;;;;6.37;4.27;;;25.20;68.70;;;;;;21170393;28;20230;-62
2022/05/16 12:02:17;;;;;;;3.80;3.23;;;25.00;68.50;;;;;;21169217;28;20198;-66
2022/05/16 12:12:34;;;;;;;6.33;3.67;;;25.30;68.10;;;;;;21166577;28;20329;-66
2022/05/16 12:22:35;;;;;;;8.07;4.10;;;25.40;67.60;;;;;;21166160;28;20233;-69
2022/05/16 12:32:37;;;;;;;6.87;4.03;;;26.00;66.40;;;;;;21165968;28;20236;-68
2022/05/16 12:43:20;;;;;;;8.33;4.20;;;26.00;66.00;;;;;;21165210;28;20209;-64
2022/05/16 12:53:45;;;;;;;15.53;5.20;;;26.10;64.80;;;;;;21165346;28;20241;-67
2022/05/16 13:04:10;;;;;;;9.40;4.30;;;25.70;65.30;;;;;;21164728;28;20210;-66
2022/05/16 13:14:36;;;;;;;11.10;3.70;;;24.50;72.70;;;;;;21163355;28;20629;-60
2022/05/16 13:24:38;;;;;;;12.93;4.87;;;23.10;77.80;;;;;;21162378;28;20653;-62
2022/05/16 13:34:53;;;;;;;15.13;4.17;;;21.80;83.90;;;;;;21160903;28;20329;-65
2022/05/16 13:44:58;;;;;;;6.83;3.27;;;21.60;88.10;;;;;;21161735;28;20202;-62
2022/05/16 13:55:00;;;;;;;8.77;3.83;;;22.20;89.90;;;;;;21161416;28;20234;-63
2022/05/16 14:05:31;;;;;;;5.40;3.10;;;22.40;90.00;;;;;;21147575;28;20229;-63
2022/05/16 14:15:41;;;;;;;7.33;3.50;;;22.50;90.30;;;;;;21202465;28;20280;-70
2022/05/16 14:25:44;;;;;;;9.30;3.40;;;23.00;90.50;;;;;;21198686;28;20205;-67
2022/05/16 14:36:07;;;;;;;10.90;3.30;;;23.40;90.20;;;;;;21172852;28;20730;-63
2022/05/16 14:56:37;;;;;;;8.63;3.00;;;24.40;88.20;;;;;;21152272;27;20272;-63
2022/05/16 15:06:41;;;;;;;6.97;2.73;;;24.20;85.90;;;;;;21174934;28;20225;-62
2022/05/16 15:16:43;;;;;;;17.77;3.47;;;24.20;83.40;;;;;;21184278;27;20237;-63
2022/05/16 15:26:45;;;;;;;7.73;2.40;;;23.80;81.10;;;;;;21174366;27;20194;-66
2022/05/16 15:36:47;;;;;;;5.17;1.60;;;23.50;80.80;;;;;;21164388;28;20761;-62
2022/05/16 15:46:49;;;;;;;8.77;2.87;;;23.00;81.40;;;;;;21166636;28;20617;-63
2022/05/16 15:56:51;;;;;;;9.03;1.53;;;22.80;82.50;;;;;;21166116;28;20320;-64
2022/05/16 16:17:13;;;;;;;3.27;1.50;;;22.50;82.90;;;;;;21164915;28;20245;-63
2022/05/16 16:27:16;;;;;;;3.23;1.50;;;22.90;82.50;;;;;;21163733;28;20221;-73
2022/05/16 16:37:18;;;;;;;4.90;2.33;;;23.50;81.10;;;;;;21162844;28;20238;-66
2022/05/16 16:47:19;;;;;;;9.20;2.27;;;23.70;79.40;;;;;;21124321;28;20611;-65
2022/05/16 16:57:27;;;;;;;7.33;1.80;;;23.30;79.50;;;;;;21140082;28;20233;-67
2022/05/16 17:07:36;;;;;;;6.63;2.43;;;23.00;80.50;;;;;;21082100;28;20195;-67
2022/05/16 17:17:39;;;;;;;8.30;2.40;;;23.20;80.50;;;;;;21077832;28;20230;-67
2022/05/16 17:27:41;;;;;;;8.93;2.37;;;23.30;79.60;;;;;;21077564;28;20266;-67
2022/05/16 17:37:43;;;;;;;5.97;2.40;;;23.20;78.90;;;;;;21137966;28;20306;-65
2022/05/16 17:47:45;;;;;;;4.10;2.67;;;23.00;79.10;;;;;;21120927;28;20256;-68
2022/05/16 17:57:46;;;;;;;7.60;3.20;;;23.10;79.70;;;;;;21128985;28;20225;-67
2022/05/16 18:07:50;;;;;;;4.97;2.97;;;22.80;80.70;;;;;;21149117;28;20256;-71
2022/05/16 18:17:55;;;;;;;8.40;3.00;;;22.50;82.10;;;;;;21089049;28;20238;-68
2022/05/16 18:27:57;;;;;;;8.63;3.50;;;22.20;83.40;;;;;;21072348;28;20206;-75
2022/05/16 18:37:59;;;;;;;7.30;3.40;;;21.90;85.20;;;;;;21105489;28;20726;-70
2022/05/16 18:58:24;;;;;;;11.60;4.37;;;21.60;87.40;;;;;;21116427;28;20715;-64
2022/05/16 19:08:28;;;;;;;8.20;3.70;;;21.30;89.10;;;;;;21087334;28;20225;-63
2022/05/16 19:18:30;;;;;;;8.47;5.27;;;21.10;90.00;;;;;;21168105;28;20663;-64
2022/05/16 19:39:00;;;;;;;7.57;2.77;;;21.00;89.80;;;;;;21175883;28;20290;-63
2022/05/16 19:49:05;;;;;;;6.03;2.90;;;20.90;88.30;;;;;;21116626;28;20217;-64
2022/05/16 19:59:10;;;;;;;5.83;2.77;;;20.80;88.90;;;;;;21083112;28;20296;-62
2022/05/16 20:09:15;;;;;;;5.37;3.00;;;20.80;90.20;;;;;;21081314;28;20206;-62
2022/05/16 20:19:18;;;;;;;6.13;3.40;;;20.60;91.00;;;;;;21098405;28;20237;-63
2022/05/16 20:29:20;;;;;;;5.17;3.40;;;20.40;91.60;;;;;;21083789;28;20234;-65
2022/05/16 20:39:28;;;;;;;7.43;3.73;;;20.20;92.00;;;;;;21063382;28;20206;-61
2022/05/16 20:49:30;;;;;;;5.87;3.60;;;20.00;92.40;;;;;;21134561;28;20231;-65
2022/05/16 20:59:31;;;;;;;6.60;3.63;;;19.90;92.80;;;;;;21163922;28;20205;-69
2022/05/16 21:09:33;;;;;;;6.97;3.40;;;19.90;92.90;;;;;;21162568;28;20239;-71
2022/05/16 21:19:35;;;;;;;7.77;3.90;;;19.90;93.00;;;;;;21174698;28;20631;-64
2022/05/16 21:29:37;;;;;;;7.37;4.00;;;19.70;93.30;;;;;;21157102;28;20237;-64
2022/05/16 21:39:39;;;;;;;7.60;4.10;;;19.70;93.70;;;;;;21178265;28;20204;-64
2022/05/16 21:49:41;;;;;;;6.53;4.20;;;19.60;94.00;;;;;;21100700;28;20219;-69
2022/05/16 21:59:42;;;;;;;6.93;3.90;;;19.50;94.30;;;;;;21079287;28;20542;-71
2022/05/16 22:09:44;;;;;;;8.50;3.97;;;19.50;94.50;;;;;;21092082;28;20783;-71
2022/05/16 22:19:46;;;;;;;6.03;3.90;;;19.50;94.60;;;;;;21090783;28;20240;-71
2022/05/16 22:29:47;;;;;;;7.53;3.90;;;19.50;94.70;;;;;;21090069;28;20232;-62
2022/05/16 22:39:49;;;;;;;5.70;3.50;;;19.50;94.90;;;;;;21089606;28;20222;-72
2022/05/16 22:49:52;;;;;;;5.57;3.80;;;19.50;95.00;;;;;;21088737;28;20258;-69
2022/05/16 22:59:53;;;;;;;7.57;4.27;;;19.50;95.00;;;;;;21088232;28;20615;-69
2022/05/16 23:09:56;;;;;;;5.50;4.10;;;19.40;95.20;;;;;;21087778;28;20239;-68
2022/05/16 23:19:58;;;;;;;9.33;4.27;;;19.30;95.30;;;;;;21087894;28;20241;-72
2022/05/16 23:30:00;;;;;;;9.73;4.40;;;19.10;95.40;;;;;;21085934;28;20237;-66
2022/05/16 23:40:04;;;;;;;12.10;4.63;;;19.00;95.50;;;;;;21086160;28;20212;-71
2022/05/16 23:50:08;;;;;;;7.73;5.20;;;18.90;95.30;;;;;;21085684;28;20713;-70
